createdAt,value
2023-04-08T00:02:41.936Z,102295.53
2023-04-08T00:07:44.160Z,102312.84
2023-04-08T00:12:47.181Z,102319.59
2023-04-08T00:17:48.725Z,102315.16
2023-04-08T00:22:50.268Z,102308.88
2023-04-08T00:27:51.814Z,102315.56
2023-04-08T00:32:53.554Z,102307.19
2023-04-08T00:37:55.340Z,102319.16
2023-04-08T00:42:58.290Z,102313.75
2023-04-08T00:47:59.836Z,102316.22
2023-04-08T00:53:01.356Z,102315.25
2023-04-08T00:58:03.098Z,102317.97
2023-04-08T01:03:08.500Z,102333.53
2023-04-08T01:08:11.907Z,102334.88
2023-04-08T01:13:17.328Z,102333.72
2023-04-08T01:18:19.768Z,102336.31
2023-04-08T01:23:37.892Z,102337.00
2023-04-08T01:28:39.622Z,102349.88
2023-04-08T01:33:41.778Z,102340.78
2023-04-08T01:38:44.371Z,102340.91
2023-04-08T01:43:47.330Z,102340.72
2023-04-08T01:48:50.189Z,102348.34
2023-04-08T01:53:51.921Z,102354.00
2023-04-08T01:58:58.069Z,102354.97
2023-04-08T02:04:00.684Z,102358.84
2023-04-08T02:09:02.361Z,102358.03
2023-04-08T02:14:03.965Z,102359.03
2023-04-08T02:19:14.544Z,102367.31
2023-04-08T02:24:17.703Z,102371.81
2023-04-08T02:29:19.298Z,102373.94
2023-04-08T02:34:22.360Z,102371.69
2023-04-08T02:39:32.162Z,102372.97
2023-04-08T02:44:33.808Z,102384.84
2023-04-08T02:49:35.370Z,102387.25
2023-04-08T02:54:36.868Z,102400.91
2023-04-08T02:59:39.027Z,102393.47
2023-04-08T03:04:40.569Z,102401.94
2023-04-08T03:09:42.165Z,102400.78
2023-04-08T03:14:43.859Z,102407.16
2023-04-08T03:19:45.407Z,102401.72
2023-04-08T03:24:46.979Z,102399.75
2023-04-08T03:29:48.531Z,102410.16
2023-04-08T03:34:53.529Z,102399.91
2023-04-08T03:39:55.804Z,102400.91
2023-04-08T03:44:57.414Z,102423.66
2023-04-08T03:49:58.932Z,102416.72
2023-04-08T03:55:00.466Z,102416.97
2023-04-08T04:00:02.027Z,102423.97
2023-04-08T04:05:03.681Z,102421.19
2023-04-08T04:10:05.852Z,102421.16
2023-04-08T04:15:07.769Z,102431.72
2023-04-08T04:20:10.081Z,102429.97
2023-04-08T04:25:11.611Z,102425.53
2023-04-08T04:30:15.607Z,102441.38
2023-04-08T04:35:17.320Z,102439.03
2023-04-08T04:40:18.823Z,102452.41
2023-04-08T04:45:20.364Z,102452.28
2023-04-08T04:50:21.864Z,102456.19
2023-04-08T04:55:23.408Z,102462.78
2023-04-08T05:00:24.894Z,102468.78
2023-04-08T05:05:26.574Z,102482.34
2023-04-08T05:10:28.160Z,102486.72
2023-04-08T05:15:29.648Z,102489.75
2023-04-08T05:20:31.236Z,102490.16
2023-04-08T05:25:32.717Z,102490.00
2023-04-08T05:30:34.309Z,102497.25
2023-04-08T05:35:36.102Z,102498.47
2023-04-08T05:40:37.882Z,102500.91
2023-04-08T05:45:39.476Z,102495.84
2023-04-08T05:50:41.155Z,102513.47
2023-04-08T05:55:42.678Z,102503.00
2023-04-08T06:00:44.180Z,102512.44
2023-04-08T06:05:45.754Z,102515.63
2023-04-08T06:10:52.122Z,102526.03
2023-04-08T06:15:54.854Z,102521.28
2023-04-08T06:20:56.315Z,102528.00
2023-04-08T06:25:58.593Z,102533.13
2023-04-08T06:31:00.559Z,102536.44
2023-04-08T06:36:06.556Z,102550.00
2023-04-08T06:41:08.392Z,102540.22
2023-04-08T06:46:09.958Z,102552.28
2023-04-08T06:51:11.549Z,102558.09
2023-04-08T06:56:13.160Z,102561.88
2023-04-08T07:01:16.415Z,102570.66
2023-04-08T07:06:18.103Z,102583.91
2023-04-08T07:11:19.682Z,102589.06
2023-04-08T07:16:21.282Z,102586.50
2023-04-08T07:21:23.035Z,102586.09
2023-04-08T07:26:24.616Z,102596.13
2023-04-08T07:31:26.545Z,102601.56
2023-04-08T07:36:28.187Z,102604.66
2023-04-08T07:41:29.760Z,102619.84
2023-04-08T07:46:31.674Z,102633.59
2023-04-08T07:51:33.584Z,102637.72
2023-04-08T07:56:35.135Z,102653.03
2023-04-08T08:01:36.968Z,102644.75
2023-04-08T08:06:38.484Z,102644.75
2023-04-08T08:11:39.930Z,102636.13
2023-04-08T08:16:41.701Z,102637.00
2023-04-08T08:21:43.268Z,102637.56
2023-04-08T08:26:49.219Z,102655.25
2023-04-08T08:31:50.784Z,102650.91
2023-04-08T08:36:53.078Z,102647.00
2023-04-08T08:41:56.425Z,102649.53
2023-04-08T08:46:58.066Z,102654.66
2023-04-08T08:52:00.459Z,102651.38
2023-04-08T08:57:02.040Z,102651.28
2023-04-08T09:02:23.023Z,102660.53
2023-04-08T09:07:26.765Z,102672.03
2023-04-08T09:12:28.500Z,102667.91
2023-04-08T09:17:35.509Z,102674.13
2023-04-08T09:22:55.469Z,102675.16
2023-04-08T09:27:57.025Z,102680.94
2023-04-08T09:32:58.747Z,102683.09
2023-04-08T09:38:02.302Z,102694.03
2023-04-08T09:43:09.358Z,102684.09
2023-04-08T09:48:17.473Z,102687.56
2023-04-08T09:53:34.249Z,102690.13
2023-04-08T09:58:52.651Z,102698.38
2023-04-08T10:03:57.300Z,102697.66
2023-04-08T10:08:59.699Z,102685.09
2023-04-08T10:14:01.430Z,102689.25
2023-04-08T10:19:03.026Z,102693.28
2023-04-08T10:24:09.522Z,102682.53
2023-04-08T10:29:21.237Z,102677.00
2023-04-08T10:34:27.564Z,102672.81
2023-04-08T10:39:31.318Z,102655.41
2023-04-08T10:44:32.817Z,102652.56
2023-04-08T10:49:34.925Z,102656.06
2023-04-08T10:54:36.963Z,102647.41
2023-04-08T10:59:39.795Z,102666.13
2023-04-08T11:04:44.684Z,102664.41
2023-04-08T11:09:46.214Z,102673.97
2023-04-08T11:14:49.675Z,102676.66
2023-04-08T11:19:52.813Z,102682.53
2023-04-08T11:24:56.305Z,102671.25
2023-04-08T11:29:58.148Z,102674.44
2023-04-08T11:35:05.491Z,102676.06
2023-04-08T11:40:11.766Z,102674.44
2023-04-08T11:45:16.439Z,102668.63
2023-04-08T11:50:29.700Z,102669.50
2023-04-08T11:55:33.089Z,102666.28
2023-04-08T12:00:34.661Z,102669.72
2023-04-08T12:05:36.402Z,102651.91
2023-04-08T12:10:37.952Z,102654.31
2023-04-08T12:15:39.422Z,102663.63
2023-04-08T12:20:41.080Z,102654.94
2023-04-08T12:25:43.102Z,102666.84
2023-04-08T12:30:44.632Z,102665.50
2023-04-08T12:35:46.271Z,102668.75
2023-04-08T12:40:49.190Z,102662.81
2023-04-08T12:45:51.917Z,102665.16
2023-04-08T12:50:53.474Z,102670.47
2023-04-08T12:55:57.325Z,102666.34
2023-04-08T13:00:58.862Z,102664.44
2023-04-08T13:06:00.697Z,102665.91
2023-04-08T13:11:02.232Z,102661.63
2023-04-08T13:16:04.116Z,102650.00
2023-04-08T13:21:05.775Z,102654.53
2023-04-08T13:26:07.318Z,102644.72
2023-04-08T13:31:08.862Z,102658.25
2023-04-08T13:36:10.463Z,102652.72
2023-04-08T13:41:12.084Z,102660.84
2023-04-08T13:46:13.602Z,102656.25
2023-04-08T13:51:15.111Z,102661.81
2023-04-08T13:56:16.615Z,102652.38
2023-04-08T14:01:18.541Z,102659.28
2023-04-08T14:06:20.110Z,102652.69
2023-04-08T14:11:21.893Z,102643.56
2023-04-08T14:16:23.364Z,102637.59
2023-04-08T14:21:24.991Z,102628.53
2023-04-08T14:26:27.206Z,102633.13
2023-04-08T14:31:28.732Z,102630.41
2023-04-08T14:36:31.609Z,102620.47
2023-04-08T14:41:33.263Z,102625.06
2023-04-08T14:46:34.895Z,102616.88
2023-04-08T14:51:37.860Z,102619.47
2023-04-08T14:56:39.551Z,102618.59
2023-04-08T15:01:42.737Z,102620.69
2023-04-08T15:06:44.438Z,102620.81
2023-04-08T15:11:46.143Z,102629.63
2023-04-08T15:16:47.679Z,102627.53
2023-04-08T15:21:49.276Z,102624.19
2023-04-08T15:26:50.774Z,102628.63
2023-04-08T15:31:52.588Z,102622.41
2023-04-08T15:36:57.081Z,102626.78
2023-04-08T15:41:58.632Z,102625.28
2023-04-08T15:47:00.186Z,102628.00
2023-04-08T15:52:01.840Z,102630.38
2023-04-08T15:57:03.357Z,102624.78
2023-04-08T16:02:05.007Z,102633.09
2023-04-08T16:07:06.626Z,102639.06
2023-04-08T16:12:08.563Z,102636.19
2023-04-08T16:17:10.144Z,102629.72
2023-04-08T16:22:11.667Z,102628.72
2023-04-08T16:27:13.251Z,102631.34
2023-04-08T16:32:14.785Z,102617.47
2023-04-08T16:37:16.256Z,102620.69
2023-04-08T16:42:18.245Z,102619.44
2023-04-08T16:47:19.714Z,102621.03
2023-04-08T16:52:21.660Z,102617.44
2023-04-08T16:57:23.546Z,102620.16
2023-04-08T17:02:25.954Z,102621.09
2023-04-08T17:07:28.368Z,102623.94
2023-04-08T17:12:29.853Z,102622.94
2023-04-08T17:17:31.354Z,102633.84
2023-04-08T17:22:32.905Z,102629.13
2023-04-08T17:27:34.412Z,102630.59
2023-04-08T17:32:36.497Z,102622.66
2023-04-08T17:37:38.126Z,102616.50
2023-04-08T17:42:39.597Z,102617.97
2023-04-08T17:47:43.070Z,102612.88
2023-04-08T17:52:46.210Z,102609.84
2023-04-08T17:57:49.597Z,102618.59
2023-04-08T18:02:51.676Z,102609.91
2023-04-08T18:07:53.561Z,102619.66
2023-04-08T18:13:10.279Z,102621.81
2023-04-08T18:18:18.026Z,102634.47
2023-04-08T18:23:19.530Z,102631.75
2023-04-08T18:28:22.436Z,102641.31
2023-04-08T18:33:24.010Z,102656.97
2023-04-08T18:38:25.804Z,102655.63
2023-04-08T18:43:28.695Z,102655.09
2023-04-08T18:48:30.418Z,102662.69
2023-04-08T18:53:32.108Z,102670.13
2023-04-08T18:58:33.651Z,102670.66
2023-04-08T19:03:36.396Z,102678.13
2023-04-08T19:08:38.089Z,102674.94
2023-04-08T19:13:39.880Z,102676.06
2023-04-08T19:18:41.422Z,102689.56
2023-04-08T19:23:43.136Z,102693.28
2023-04-08T19:28:44.653Z,102695.88
2023-04-08T19:33:46.371Z,102694.53
2023-04-08T19:38:47.887Z,102705.56
2023-04-08T19:43:49.474Z,102709.03
2023-04-08T19:48:51.269Z,102696.66
2023-04-08T19:53:53.193Z,102703.56
2023-04-08T19:58:55.083Z,102701.50
2023-04-08T20:03:56.935Z,102704.88
2023-04-08T20:09:05.174Z,102709.34
2023-04-08T20:14:06.927Z,102708.81
2023-04-08T20:19:08.461Z,102710.00
2023-04-08T20:24:10.013Z,102710.13
2023-04-08T20:29:11.510Z,102704.91
2023-04-08T20:34:13.390Z,102719.41
2023-04-08T20:39:14.856Z,102718.00
2023-04-08T20:44:16.487Z,102715.63
2023-04-08T20:49:18.693Z,102717.69
2023-04-08T20:54:20.222Z,102714.56
2023-04-08T20:59:21.778Z,102705.88
2023-04-08T21:04:24.483Z,102707.41
2023-04-08T21:09:26.081Z,102706.88
2023-04-08T21:14:27.571Z,102697.53
2023-04-08T21:19:29.052Z,102707.22
2023-04-08T21:24:31.326Z,102706.56
2023-04-08T21:29:32.778Z,102716.25
2023-04-08T21:34:34.282Z,102714.59
2023-04-08T21:39:35.883Z,102716.78
2023-04-08T21:44:37.552Z,102713.94
2023-04-08T21:49:39.082Z,102713.94
2023-04-08T21:54:40.608Z,102717.56
2023-04-08T21:59:42.139Z,102726.13
2023-04-08T22:04:43.656Z,102725.41
2023-04-08T22:09:45.200Z,102728.00
2023-04-08T22:14:46.700Z,102726.69
2023-04-08T22:19:48.190Z,102726.81
2023-04-08T22:24:49.714Z,102718.84
2023-04-08T22:29:51.195Z,102707.75
2023-04-08T22:34:52.697Z,102709.72
2023-04-08T22:39:54.203Z,102700.91
2023-04-08T22:44:55.879Z,102695.78
2023-04-08T22:49:57.418Z,102714.53
2023-04-08T22:54:58.877Z,102701.88
2023-04-08T23:00:02.063Z,102706.13
2023-04-08T23:05:05.503Z,102700.13
2023-04-08T23:10:07.885Z,102693.06
2023-04-08T23:15:09.743Z,102698.53
2023-04-08T23:20:11.798Z,102688.19
2023-04-08T23:25:13.492Z,102688.59
2023-04-08T23:30:14.969Z,102686.66
2023-04-08T23:35:16.677Z,102681.53
2023-04-08T23:40:18.217Z,102685.22
2023-04-08T23:45:19.690Z,102679.16
2023-04-08T23:50:22.951Z,102680.56
2023-04-08T23:55:24.463Z,102683.94
